Time;durP1;ratioP1;P1;durP2;ratioP2;P2;SDS_P1;SDS_P2;PMS_P1;PMS_P2;Temp;Humidity;BMP_temperature;BMP_pressure;BME280_temperature;BME280_humidity;BME280_pressure;Samples;Min_cycle;Max_cycle;Signal;HPM_P1;HPM_P2
2021/07/02 00:02:17;;;;;;;29.23;21.90;;;;;;;19.76;80.15;99347.06;5111022;28;20063;-23
2021/07/02 00:04:43;;;;;;;26.45;20.85;;;;;;;20.26;79.21;99357.25;5111402;28;20038;-23
2021/07/02 00:07:08;;;;;;;29.00;23.13;;;;;;;20.39;78.01;99356.44;5111284;28;20035;-23
2021/07/02 00:09:34;;;;;;;28.77;25.52;;;;;;;20.55;75.20;99350.72;5111314;28;20024;-24
2021/07/02 00:11:59;;;;;;;32.45;25.02;;;;;;;20.50;74.72;99350.84;5110839;28;20039;-23
2021/07/02 00:14:25;;;;;;;29.95;24.08;;;;;;;20.28;75.55;99355.84;5110921;28;20419;-23
2021/07/02 00:16:50;;;;;;;30.48;25.23;;;;;;;20.01;75.77;99337.69;5111109;28;20020;-23
2021/07/02 00:19:16;;;;;;;30.08;26.00;;;;;;;19.73;77.56;99346.84;5110849;28;20364;-23
2021/07/02 00:21:41;;;;;;;33.70;26.75;;;;;;;19.94;77.85;99331.88;5110664;28;20031;-23
2021/07/02 00:24:06;;;;;;;34.03;26.05;;;;;;;20.15;76.08;99309.81;5110574;28;20019;-24
2021/07/02 00:26:32;;;;;;;33.65;28.58;;;;;;;20.21;75.88;99305.91;5110852;28;20080;-23
2021/07/02 00:28:57;;;;;;;35.75;29.02;;;;;;;20.12;76.41;99332.06;5110497;28;20031;-23
2021/07/02 00:31:23;;;;;;;34.83;28.75;;;;;;;20.11;77.04;99325.06;5110618;28;20027;-23
2021/07/02 00:33:48;;;;;;;37.53;27.45;;;;;;;19.61;77.64;99310.22;5110406;28;20118;-23
2021/07/02 00:36:14;;;;;;;38.85;29.40;;;;;;;19.38;78.53;99320.06;5110477;28;20038;-23
2021/07/02 00:38:39;;;;;;;88.90;31.85;;;;;;;19.33;78.89;99301.25;5092485;28;20406;-23
2021/07/02 00:41:05;;;;;;;43.22;33.40;;;;;;;19.56;78.39;99304.91;5111009;28;20042;-23
2021/07/02 00:43:30;;;;;;;42.42;29.50;;;;;;;19.43;78.32;99301.06;5110645;28;20039;-23
2021/07/02 00:45:56;;;;;;;36.92;28.95;;;;;;;19.36;78.83;99299.84;5091627;28;20474;-23
2021/07/02 00:48:21;;;;;;;36.45;26.92;;;;;;;19.12;79.94;99308.84;5110211;28;20034;-24
2021/07/02 00:50:47;;;;;;;33.40;25.17;;;;;;;19.37;79.64;99306.84;5110249;28;20103;-23
2021/07/02 00:53:12;;;;;;;32.67;26.45;;;;;;;19.68;77.91;99305.22;5075145;28;20084;-23
2021/07/02 00:55:38;;;;;;;34.78;26.40;;;;;;;19.18;79.72;99302.28;5110281;28;20055;-23
2021/07/02 00:58:06;;;;;;;34.58;26.90;;;;;;;19.13;79.68;99288.84;5109946;28;20441;-23
2021/07/02 01:00:31;;;;;;;32.42;25.65;;;;;;;19.44;79.05;99307.28;5109923;28;20076;-23
2021/07/02 01:02:57;;;;;;;30.38;24.58;;;;;;;19.74;78.46;99303.28;5109902;28;20480;-23
2021/07/02 01:05:22;;;;;;;32.33;22.25;;;;;;;19.85;77.08;99312.78;5109866;28;20043;-24
2021/07/02 01:07:48;;;;;;;25.98;20.42;;;;;;;19.63;78.09;99309.91;5091431;28;20054;-24
2021/07/02 01:10:16;;;;;;;26.30;21.13;;;;;;;19.40;79.41;99317.09;5110200;28;20023;-23
2021/07/02 01:12:42;;;;;;;27.88;21.65;;;;;;;19.42;78.84;99314.88;5075029;28;20476;-23
2021/07/02 01:15:18;;;;;;;29.38;23.83;;;;;;;19.87;77.25;99315.22;5109893;28;20031;-23
2021/07/02 01:17:43;;;;;;;29.80;23.73;;;;;;;19.61;76.95;99310.22;5109693;28;20049;-24
2021/07/02 01:20:09;;;;;;;29.08;23.33;;;;;;;19.62;77.22;99297.50;5109529;28;20508;-23
2021/07/02 01:22:35;;;;;;;28.10;22.80;;;;;;;19.31;78.24;99297.22;5109745;28;20092;-23
2021/07/02 01:25:01;;;;;;;30.77;23.83;;;;;;;19.27;78.26;99297.03;5109708;28;20024;-23
2021/07/02 01:27:26;;;;;;;34.47;24.15;;;;;;;19.41;77.62;99303.28;5109430;28;20039;-23
2021/07/02 01:29:52;;;;;;;30.90;23.38;;;;;;;19.49;77.33;99307.19;5109360;28;20020;-23
2021/07/02 01:32:17;;;;;;;28.63;24.33;;;;;;;19.52;77.74;99314.72;5109354;28;20116;-23
2021/07/02 01:34:43;;;;;;;36.75;25.77;;;;;;;19.52;77.71;99309.31;5109491;28;20026;-23
2021/07/02 01:37:09;;;;;;;26.77;22.77;;;;;;;19.70;76.22;99304.16;5109370;28;20035;-23
2021/07/02 01:39:37;;;;;;;30.30;22.42;;;;;;;19.18;78.19;99299.56;5074433;28;20086;-23
2021/07/02 01:42:06;;;;;;;25.58;21.30;;;;;;;19.19;77.76;99300.41;5109047;28;20544;-23
2021/07/02 01:44:31;;;;;;;26.92;19.77;;;;;;;19.15;77.85;99310.97;5109313;28;20118;-23
2021/07/02 01:46:57;;;;;;;26.52;19.55;;;;;;;19.01;78.39;99310.13;5109600;28;20465;-24
2021/07/02 01:49:23;;;;;;;28.05;20.02;;;;;;;19.35;78.35;99309.03;5109180;28;20034;-23
2021/07/02 01:51:48;;;;;;;21.05;18.52;;;;;;;19.64;76.92;99306.94;5109050;28;20035;-23
2021/07/02 01:54:14;;;;;;;25.10;20.33;;;;;;;19.60;76.80;99305.91;5074241;28;20711;-23
2021/07/02 01:56:47;;;;;;;21.88;19.55;;;;;;;19.81;76.47;99306.38;5109165;28;20876;-24
2021/07/02 01:59:13;;;;;;;25.27;18.92;;;;;;;19.68;76.23;99318.75;5108877;28;20027;-23
2021/07/02 02:01:39;;;;;;;22.80;18.20;;;;;;;19.97;75.70;99325.84;5108673;28;20052;-24
2021/07/02 02:04:04;;;;;;;26.45;19.70;;;;;;;20.12;75.59;99327.44;5108619;28;20047;-23
2021/07/02 02:06:30;;;;;;;27.65;20.58;;;;;;;20.18;75.39;99326.25;5109256;28;20483;-24
2021/07/02 02:08:56;;;;;;;24.10;19.65;;;;;;;20.45;74.16;99330.88;5109136;28;20750;-23
2021/07/02 02:11:21;;;;;;;27.08;20.30;;;;;;;20.61;73.12;99322.44;5108752;28;20015;-23
2021/07/02 02:13:46;;;;;;;24.08;19.90;;;;;;;20.54;73.80;99344.50;5108535;28;20036;-24
2021/07/02 02:16:12;;;;;;;24.10;19.55;;;;;;;20.48;73.89;99345.72;5090250;28;20502;-23
2021/07/02 02:18:37;;;;;;;22.95;18.67;;;;;;;20.76;72.78;99351.94;5108824;28;20081;-23
2021/07/02 02:21:03;;;;;;;27.00;19.65;;;;;;;20.74;72.50;99346.00;5108573;28;20030;-23
2021/07/02 02:23:28;;;;;;;21.25;18.95;;;;;;;20.38;73.52;99329.66;5090477;28;20471;-23
2021/07/02 02:25:54;;;;;;;23.52;17.95;;;;;;;20.09;75.05;99359.75;5108276;28;20031;-23
2021/07/02 02:28:19;;;;;;;22.00;18.48;;;;;;;19.99;75.60;99360.72;5108555;28;20038;-23
2021/07/02 02:30:45;;;;;;;23.25;18.17;;;;;;;20.14;75.02;99362.34;5108292;28;20030;-23
2021/07/02 02:33:11;;;;;;;23.27;18.27;;;;;;;20.36;74.54;99365.16;5108549;28;20563;-23
2021/07/02 02:35:37;;;;;;;25.40;19.30;;;;;;;20.42;73.95;99369.38;5108573;28;20024;-23
2021/07/02 02:38:02;;;;;;;23.90;18.83;;;;;;;20.40;74.00;99365.38;5090252;28;20039;-23
2021/07/02 02:40:28;;;;;;;24.02;18.10;;;;;;;20.35;74.06;99362.75;5090238;28;20024;-23
2021/07/02 02:42:53;;;;;;;23.15;18.25;;;;;;;20.06;76.43;99366.53;5108705;28;20035;-23
2021/07/02 02:45:19;;;;;;;25.48;18.35;;;;;;;20.26;75.19;99376.19;5108530;28;20027;-23
2021/07/02 02:47:45;;;;;;;30.23;18.20;;;;;;;19.96;76.52;99372.97;5108384;28;20430;-23
2021/07/02 02:50:10;;;;;;;25.38;18.40;;;;;;;20.10;76.27;99377.59;5108032;28;20019;-23
2021/07/02 02:52:36;;;;;;;23.75;18.08;;;;;;;19.98;76.53;99387.00;5108153;28;20051;-23
2021/07/02 02:55:01;;;;;;;24.48;18.02;;;;;;;19.97;74.74;99387.28;5108200;28;20028;-23
2021/07/02 02:57:27;;;;;;;24.33;19.42;;;;;;;19.92;75.60;99377.38;5108105;28;20028;-23
2021/07/02 02:59:52;;;;;;;23.65;19.27;;;;;;;20.07;74.93;99385.19;5107504;28;20563;-23
2021/07/02 03:02:18;;;;;;;22.02;17.80;;;;;;;20.11;73.99;99373.78;5107985;28;20058;-23
2021/07/02 03:04:43;;;;;;;21.25;17.08;;;;;;;19.67;75.63;99384.75;5107991;28;20540;-23
2021/07/02 03:07:09;;;;;;;22.50;17.63;;;;;;;19.48;77.20;99381.31;5108076;28;20027;-23
2021/07/02 03:09:34;;;;;;;22.65;17.55;;;;;;;19.46;79.06;99397.03;5107916;28;20028;-23
2021/07/02 03:12:00;;;;;;;24.25;18.27;;;;;;;19.30;79.00;99393.72;5107851;28;20057;-23
2021/07/02 03:14:25;;;;;;;26.77;18.85;;;;;;;19.32;79.52;99396.16;5108070;28;20031;-23
2021/07/02 03:16:51;;;;;;;23.60;19.02;;;;;;;19.33;79.84;99397.75;5108090;28;20092;-23
2021/07/02 03:19:17;;;;;;;22.83;19.08;;;;;;;19.34;79.90;99402.06;5108350;28;20849;-23
2021/07/02 03:21:43;;;;;;;28.38;18.92;;;;;;;19.27;79.58;99378.91;5108874;28;20100;-23
2021/07/02 03:24:08;;;;;;;23.33;17.83;;;;;;;19.48;79.06;99394.81;5111856;28;20023;-23
2021/07/02 03:26:34;;;;;;;25.50;18.73;;;;;;;19.99;77.39;99399.41;5111959;28;20047;-23
2021/07/02 03:29:00;;;;;;;25.90;18.83;;;;;;;20.05;76.70;99395.53;5112350;28;20027;-23
2021/07/02 03:31:25;;;;;;;22.42;18.67;;;;;;;20.07;76.69;99411.47;5093816;28;20097;-23
2021/07/02 03:33:50;;;;;;;27.95;18.92;;;;;;;20.31;76.01;99427.56;5111717;28;20031;-23
2021/07/02 03:36:16;;;;;;;24.08;18.67;;;;;;;20.22;75.53;99413.09;5111844;28;20544;-23
2021/07/02 03:38:41;;;;;;;23.23;18.80;;;;;;;20.27;75.87;99438.16;5093456;28;20038;-23
2021/07/02 03:41:07;;;;;;;24.17;20.25;;;;;;;19.90;79.14;99440.97;5111706;28;20035;-23
2021/07/02 03:43:32;;;;;;;29.65;20.45;;;;;;;20.17;77.59;99438.34;5111602;28;20053;-23
2021/07/02 03:45:58;;;;;;;27.80;22.23;;;;;;;20.13;78.04;99441.97;5111608;28;20039;-23
2021/07/02 03:48:23;;;;;;;29.73;22.65;;;;;;;19.63;79.02;99429.72;5111973;28;20042;-23
2021/07/02 03:50:49;;;;;;;26.55;21.30;;;;;;;19.75;79.00;99442.03;5111493;28;20027;-23
2021/07/02 03:53:14;;;;;;;27.60;23.45;;;;;;;19.80;79.66;99447.38;5111793;28;20028;-23
2021/07/02 03:55:40;;;;;;;27.40;23.30;;;;;;;19.97;79.42;99444.91;5111879;28;20134;-23
2021/07/02 03:58:05;;;;;;;29.00;24.25;;;;;;;19.90;80.02;99414.75;5111286;28;20067;-23
2021/07/02 04:00:31;;;;;;;28.27;24.63;;;;;;;19.93;79.65;99422.25;5110974;28;20031;-23
2021/07/02 04:02:56;;;;;;;36.95;25.63;;;;;;;19.82;80.96;99437.88;5111228;28;20510;-23
2021/07/02 04:05:22;;;;;;;34.80;24.52;;;;;;;19.79;81.11;99421.41;5111304;28;20114;-23
2021/07/02 04:07:47;;;;;;;32.75;26.25;;;;;;;20.06;80.11;99416.09;5110851;28;20080;-23
2021/07/02 04:10:13;;;;;;;38.92;27.55;;;;;;;20.25;79.92;99442.28;5111222;28;20403;-23
2021/07/02 04:12:38;;;;;;;42.00;28.20;;;;;;;20.27;80.13;99427.34;5111267;28;20031;-23
2021/07/02 04:15:07;;;;;;;41.78;26.65;;;;;;;20.17;80.46;99442.97;5110927;28;20035;-23
2021/07/02 04:17:33;;;;;;;43.97;28.52;;;;;;;20.51;80.10;99441.81;5110844;28;20026;-23
2021/07/02 04:19:58;;;;;;;43.47;27.52;;;;;;;20.78;77.90;99425.59;5092493;28;20027;-23
2021/07/02 04:22:24;;;;;;;42.20;29.35;;;;;;;21.04;77.36;99425.03;5111183;28;20047;-23
2021/07/02 04:24:50;;;;;;;47.60;29.73;;;;;;;21.53;75.85;99442.41;5111055;28;20548;-23
2021/07/02 04:27:15;;;;;;;44.83;28.52;;;;;;;21.25;76.45;99428.91;5110934;28;20058;-24
2021/07/02 04:29:44;;;;;;;52.35;30.30;;;;;;;21.71;75.48;99437.13;5110942;28;20028;-23
2021/07/02 04:32:10;;;;;;;51.50;28.83;;;;;;;21.77;74.38;99441.31;5110310;28;20111;-23
2021/07/02 04:34:35;;;;;;;72.53;45.22;;;;;;;21.61;75.97;99452.53;5110611;28;20032;-23
2021/07/02 04:37:01;;;;;;;50.08;30.17;;;;;;;21.70;77.01;99454.50;5110571;28;20043;-23
2021/07/02 04:39:26;;;;;;;55.65;31.67;;;;;;;21.60;76.59;99450.94;5110819;28;20031;-23
2021/07/02 04:41:52;;;;;;;54.60;30.00;;;;;;;21.82;76.62;99449.31;5110659;28;20035;-23
2021/07/02 04:44:17;;;;;;;52.03;31.52;;;;;;;22.17;75.37;99468.56;5092051;28;20074;-23
2021/07/02 04:46:43;;;;;;;65.00;38.20;;;;;;;22.13;74.88;99452.09;5092367;28;20396;-23
2021/07/02 04:49:08;;;;;;;49.25;29.55;;;;;;;22.44;73.66;99475.78;5092190;28;20035;-23
2021/07/02 04:51:34;;;;;;;46.05;27.02;;;;;;;22.60;72.44;99468.03;5110236;28;20491;-23
2021/07/02 04:53:59;;;;;;;49.38;26.73;;;;;;;22.69;72.42;99468.84;5091823;28;20038;-23
2021/07/02 04:56:25;;;;;;;43.50;24.10;;;;;;;22.78;71.12;99475.13;5110270;28;20028;-23
2021/07/02 04:58:57;;;;;;;41.80;25.55;;;;;;;22.97;72.16;99484.94;5092005;28;20035;-23
2021/07/02 05:01:23;;;;;;;35.00;23.83;;;;;;;22.96;72.32;99472.44;5109053;28;20027;-23
2021/07/02 05:03:49;;;;;;;42.00;23.27;;;;;;;22.86;72.57;99470.81;5091678;28;20051;-23
2021/07/02 05:06:14;;;;;;;36.90;21.70;;;;;;;23.06;71.31;99467.53;5110160;28;20031;-23
2021/07/02 05:08:40;;;;;;;34.75;20.35;;;;;;;23.01;71.68;99494.91;5110450;28;20084;-23
2021/07/02 05:11:06;;;;;;;29.50;20.08;;;;;;;22.87;71.73;99477.88;5091794;28;20036;-23
2021/07/02 05:13:32;;;;;;;26.73;17.45;;;;;;;22.66;72.07;99496.66;5091885;28;20020;-23
2021/07/02 05:15:57;;;;;;;25.10;17.67;;;;;;;22.49;73.49;99478.34;5109800;28;20027;-23
2021/07/02 05:18:23;;;;;;;29.90;20.52;;;;;;;22.73;72.49;99486.13;5109898;28;20031;-23
2021/07/02 05:20:48;;;;;;;32.72;21.88;;;;;;;22.85;72.27;99502.63;5109800;28;20055;-23
2021/07/02 05:23:14;;;;;;;27.85;19.80;;;;;;;22.83;71.73;99501.38;5109788;28;20028;-23
2021/07/02 05:25:39;;;;;;;26.10;17.90;;;;;;;22.82;72.97;99500.56;5109791;28;20036;-23
2021/07/02 05:28:05;;;;;;;40.72;25.98;;;;;;;22.99;72.07;99505.25;5109999;28;20542;-23
2021/07/02 05:30:30;;;;;;;24.25;16.42;;;;;;;22.93;71.31;99497.56;5109928;28;20088;-23
2021/07/02 05:32:56;;;;;;;25.85;14.70;;;;;;;23.04;69.78;99507.84;5109502;28;20028;-23
2021/07/02 05:35:21;;;;;;;25.08;15.85;;;;;;;23.06;70.72;99505.59;5109433;28;20038;-23
2021/07/02 05:37:47;;;;;;;23.55;15.07;;;;;;;23.05;71.23;99512.19;5109353;28;20487;-23
2021/07/02 05:40:13;;;;;;;18.85;14.65;;;;;;;23.10;69.86;99510.44;5109284;28;20027;-23
2021/07/02 05:42:39;;;;;;;23.27;15.13;;;;;;;23.27;68.63;99516.72;5109470;28;20106;-23
2021/07/02 05:45:05;;;;;;;20.83;14.93;;;;;;;23.07;69.41;99525.47;5108513;28;20469;-23
2021/07/02 05:47:36;;;;;;;24.58;16.17;;;;;;;23.11;69.75;99503.84;5109351;28;20031;-23
2021/07/02 05:50:01;;;;;;;17.70;14.18;;;;;;;23.41;68.05;99519.28;5109184;28;20035;-23
2021/07/02 05:52:26;;;;;;;24.23;16.08;;;;;;;23.51;69.83;99531.78;5109190;28;20028;-23
2021/07/02 05:54:52;;;;;;;23.48;16.88;;;;;;;23.64;68.49;99527.34;5109346;28;20032;-23
2021/07/02 05:57:17;;;;;;;22.42;15.23;;;;;;;23.83;67.83;99532.50;5109252;28;20391;-23
2021/07/02 05:59:43;;;;;;;22.90;14.77;;;;;;;23.63;68.01;99529.25;5109035;28;20038;-23
2021/07/02 06:02:08;;;;;;;22.60;14.90;;;;;;;23.71;67.49;99535.03;5108475;28;20063;-23
2021/07/02 06:04:34;;;;;;;19.17;13.10;;;;;;;23.75;68.34;99536.00;5109113;28;20494;-23
2021/07/02 06:06:59;;;;;;;21.92;14.18;;;;;;;23.79;67.81;99536.97;5090793;28;20399;-23
2021/07/02 06:09:24;;;;;;;21.98;14.45;;;;;;;23.88;68.13;99537.75;5108811;28;20097;-23
2021/07/02 06:11:51;;;;;;;20.38;13.48;;;;;;;23.98;67.27;99529.28;5109222;28;20027;-23
2021/07/02 06:14:17;;;;;;;20.70;14.30;;;;;;;24.21;66.32;99537.25;5109305;28;20867;-23
2021/07/02 06:16:42;;;;;;;21.63;14.60;;;;;;;24.16;68.47;99532.78;5109055;28;20035;-23
2021/07/02 06:19:08;;;;;;;20.73;14.52;;;;;;;24.24;66.21;99531.97;5108725;28;20031;-23
2021/07/02 06:21:33;;;;;;;18.60;13.73;;;;;;;24.69;65.97;99538.16;5108882;28;20032;-23
2021/07/02 06:23:59;;;;;;;18.80;13.13;;;;;;;24.72;63.18;99534.75;5108665;28;20497;-23
2021/07/02 06:26:24;;;;;;;16.50;12.98;;;;;;;24.34;64.73;99533.56;5109177;28;20383;-23
2021/07/02 06:28:50;;;;;;;19.00;13.25;;;;;;;24.45;65.95;99526.63;5108656;28;20038;-23
2021/07/02 06:31:15;;;;;;;17.65;12.25;;;;;;;24.67;65.45;99524.84;5108410;28;20076;-23
2021/07/02 06:33:41;;;;;;;15.55;13.05;;;;;;;24.44;64.20;99513.34;5108556;28;20069;-22
2021/07/02 06:36:06;;;;;;;20.30;12.40;;;;;;;24.37;65.08;99516.53;5108376;28;20035;-23
2021/07/02 06:38:32;;;;;;;23.65;13.85;;;;;;;24.60;64.89;99527.25;5108430;28;20101;-23
2021/07/02 06:40:57;;;;;;;15.73;12.40;;;;;;;24.84;64.33;99529.41;5108301;28;20080;-23
2021/07/02 06:43:23;;;;;;;20.50;12.77;;;;;;;24.75;65.10;99513.09;5108400;28;20038;-22
2021/07/02 06:45:48;;;;;;;15.85;11.65;;;;;;;24.92;62.98;99525.06;5108342;28;20031;-23
2021/07/02 06:48:14;;;;;;;18.10;12.23;;;;;;;24.72;63.62;99512.94;5109027;28;20023;-23
2021/07/02 06:50:43;;;;;;;19.33;11.82;;;;;;;24.69;63.87;99519.06;5108492;28;20023;-22
2021/07/02 06:53:09;;;;;;;19.20;13.25;;;;;;;24.56;65.28;99518.13;5108397;28;20406;-23
2021/07/02 06:55:34;;;;;;;17.45;12.13;;;;;;;24.41;65.28;99509.31;5108643;28;20542;-22
2021/07/02 06:58:00;;;;;;;19.98;12.10;;;;;;;24.37;65.64;99508.38;5108067;28;20020;-22
2021/07/02 07:00:27;;;;;;;20.60;12.82;;;;;;;24.58;66.27;99513.97;5107946;28;20222;-23
2021/07/02 07:02:52;;;;;;;18.02;12.82;;;;;;;24.58;66.62;99508.53;5107886;28;20067;-22
2021/07/02 07:05:18;;;;;;;17.70;12.10;;;;;;;24.60;64.17;99505.44;5108199;28;20027;-23
2021/07/02 07:07:44;;;;;;;20.55;13.32;;;;;;;24.81;63.90;99500.88;5073206;28;20031;-23
2021/07/02 07:10:10;;;;;;;17.13;13.00;;;;;;;25.02;65.51;99506.38;5108002;28;20023;-23
2021/07/02 07:12:35;;;;;;;15.40;12.40;;;;;;;24.91;63.31;99510.63;5108497;28;20134;-22
2021/07/02 07:15:01;;;;;;;16.25;11.98;;;;;;;25.04;64.17;99497.88;5107624;28;20088;-24
2021/07/02 07:17:26;;;;;;;18.75;12.27;;;;;;;25.08;64.03;99495.31;5107780;28;20456;-23
2021/07/02 07:19:52;;;;;;;17.35;12.68;;;;;;;25.38;62.76;99501.56;5107749;28;20061;-23
2021/07/02 07:22:18;;;;;;;17.42;11.40;;;;;;;25.58;59.49;99500.78;5107745;28;20024;-22
2021/07/02 07:24:43;;;;;;;16.58;11.57;;;;;;;25.55;60.42;99485.03;5107958;28;20035;-23
2021/07/02 07:27:09;;;;;;;17.15;11.60;;;;;;;25.78;61.17;99501.09;5108156;28;20418;-23
2021/07/02 07:29:34;;;;;;;19.10;11.68;;;;;;;25.95;60.03;99506.44;5107993;28;20573;-22
2021/07/02 07:32:01;;;;;;;21.45;11.60;;;;;;;26.31;59.31;99504.94;5107662;28;20027;-23
2021/07/02 07:36:55;;;;;;;15.20;11.90;;;;;;;26.70;59.72;99497.28;5108251;28;20260;-22
2021/07/02 07:39:21;;;;;;;16.95;11.88;;;;;;;27.12;57.44;99505.25;5107917;28;20027;-23
2021/07/02 07:41:47;;;;;;;16.05;10.40;;;;;;;27.12;56.11;99499.78;5107880;28;20042;-23
2021/07/02 07:44:13;;;;;;;16.13;9.98;;;;;;;27.15;52.60;99501.81;5107765;28;20039;-22
2021/07/02 07:46:39;;;;;;;16.85;10.85;;;;;;;27.49;55.86;99499.75;5107609;28;20035;-22
2021/07/02 07:49:04;;;;;;;16.00;9.32;;;;;;;27.31;51.24;99512.13;5107835;28;20032;-22
2021/07/02 07:51:33;;;;;;;18.17;9.50;;;;;;;27.42;51.03;99508.56;5107641;28;20081;-22
2021/07/02 07:53:59;;;;;;;13.02;9.45;;;;;;;27.38;54.68;99517.78;5107554;28;20028;-22
2021/07/02 07:56:26;;;;;;;16.42;10.60;;;;;;;27.64;56.24;99520.94;5107695;28;20038;-22
2021/07/02 07:58:52;;;;;;;14.27;8.90;;;;;;;27.65;50.57;99517.06;5107742;28;20507;-22
2021/07/02 08:01:18;;;;;;;12.88;8.57;;;;;;;27.44;49.69;99516.41;5107371;28;20130;-22
2021/07/02 08:03:43;;;;;;;13.23;8.35;;;;;;;27.65;52.35;99517.06;5107719;28;20067;-22
2021/07/02 08:06:09;;;;;;;17.60;9.27;;;;;;;27.54;53.32;99515.94;5107385;28;20031;-22
2021/07/02 08:08:34;;;;;;;12.18;9.60;;;;;;;27.52;53.08;99501.78;5109539;28;20035;-22
2021/07/02 08:11:00;;;;;;;13.52;9.45;;;;;;;27.72;53.45;99515.66;5111304;28;20028;-22
2021/07/02 08:13:28;;;;;;;17.05;9.48;;;;;;;28.00;54.48;99521.19;5111359;28;20476;-22
2021/07/02 08:15:54;;;;;;;13.75;9.18;;;;;;;27.99;50.37;99517.66;5110847;28;20035;-22
2021/07/02 08:18:19;;;;;;;13.35;8.45;;;;;;;27.97;49.76;99514.47;5111675;28;20040;-22
2021/07/02 08:20:45;;;;;;;13.02;8.35;;;;;;;27.98;49.64;99513.31;5110939;28;20016;-22
2021/07/02 08:23:12;;;;;;;11.95;8.45;;;;;;;27.99;48.87;99509.44;5092936;28;20039;-22
2021/07/02 08:25:37;;;;;;;11.23;8.90;;;;;;;28.30;48.96;99507.91;5111105;28;20074;-22
2021/07/02 08:30:47;;;;;;;13.48;5.95;;;;;;;27.95;43.84;99502.25;5111506;28;20038;-22
2021/07/02 08:33:17;;;;;;;12.90;7.60;;;;;;;28.37;46.42;99497.09;5111135;28;20036;-22
2021/07/02 08:35:42;;;;;;;10.60;5.88;;;;;;;28.09;44.34;99505.38;5110825;28;20376;-22
2021/07/02 08:38:07;;;;;;;10.35;6.68;;;;;;;28.33;43.87;99501.72;5111048;28;20093;-22
2021/07/02 08:40:33;;;;;;;16.75;9.00;;;;;;;28.16;47.44;99491.09;5110640;28;20082;-22
2021/07/02 08:42:58;;;;;;;12.45;8.40;;;;;;;28.48;46.01;99502.06;5110762;28;20043;-22
2021/07/02 08:45:24;;;;;;;11.90;8.50;;;;;;;28.71;46.86;99505.84;5110640;28;20536;-22
2021/07/02 08:47:51;;;;;;;14.85;8.68;;;;;;;29.16;46.35;99499.06;5110300;28;20020;-22
2021/07/02 08:50:22;;;;;;;13.90;8.38;;;;;;;29.44;44.69;99492.59;5110700;28;20109;-22
2021/07/02 08:52:47;;;;;;;11.27;7.95;;;;;;;29.43;44.41;99482.78;5110833;28;20070;-22
2021/07/02 08:55:13;;;;;;;14.70;8.95;;;;;;;29.61;48.67;99494.94;5110047;28;20051;-22
2021/07/02 08:57:38;;;;;;;18.67;9.80;;;;;;;29.79;49.41;99489.03;5110514;28;20088;-22
2021/07/02 09:00:04;;;;;;;13.00;8.77;;;;;;;29.51;45.62;99481.00;5110081;28;20035;-22
2021/07/02 09:02:31;;;;;;;16.50;8.38;;;;;;;29.58;46.39;99492.13;5110047;28;20514;-22
2021/07/02 09:04:57;;;;;;;14.30;8.23;;;;;;;29.65;45.39;99484.81;5110344;28;20153;-22
2021/07/02 09:07:23;;;;;;;12.73;8.00;;;;;;;29.64;43.93;99487.91;5110229;28;20035;-22
2021/07/02 09:09:51;;;;;;;15.02;9.18;;;;;;;29.06;47.72;99494.09;5110192;28;20035;-22
2021/07/02 09:12:18;;;;;;;13.90;8.45;;;;;;;28.77;45.74;99487.94;5110193;28;20118;-22
2021/07/02 09:14:57;;;;;;;13.07;8.55;;;;;;;29.46;45.97;99484.78;5110156;28;20380;-22
2021/07/02 09:17:24;;;;;;;11.23;8.02;;;;;;;29.37;45.09;99489.72;5110013;28;20036;-22
2021/07/02 09:20:19;;;;;;;13.27;7.90;;;;;;;29.79;42.91;99489.03;5109863;28;20038;-22
2021/07/02 09:22:58;;;;;;;14.23;8.15;;;;;;;30.31;43.77;99495.94;5088348;28;20043;-23
2021/07/02 09:25:24;;;;;;;13.45;7.55;;;;;;;29.87;43.04;99495.47;5109847;28;20205;-23
2021/07/02 09:27:51;;;;;;;12.43;7.93;;;;;;;30.02;43.52;99484.38;5109958;28;20150;-22
2021/07/02 09:30:18;;;;;;;12.60;7.70;;;;;;;29.73;42.66;99471.25;5110115;28;20031;-22
2021/07/02 09:33:04;;;;;;;13.00;8.00;;;;;;;29.90;44.29;99465.31;5109960;28;20147;-22
2021/07/02 09:35:44;;;;;;;12.13;7.22;;;;;;;30.11;40.50;99464.13;5109884;28;20126;-22
2021/07/02 09:38:09;;;;;;;10.43;6.47;;;;;;;30.10;40.28;99465.25;5109280;28;20027;-22
2021/07/02 09:40:35;;;;;;;12.40;7.50;;;;;;;30.44;43.38;99461.59;5109422;28;20027;-22
2021/07/02 09:43:06;;;;;;;9.73;6.10;;;;;;;30.71;38.46;99453.38;5109467;28;20513;-22
2021/07/02 09:45:53;;;;;;;10.68;6.63;;;;;;;30.56;42.25;99459.78;5109583;28;20032;-22
2021/07/02 09:48:26;;;;;;;10.27;5.68;;;;;;;30.19;39.89;99443.81;5109271;28;20438;-22
2021/07/02 09:51:09;;;;;;;10.00;6.38;;;;;;;29.96;40.10;99430.88;5091212;28;20088;-22
2021/07/02 09:53:37;;;;;;;15.07;7.72;;;;;;;30.56;42.88;99451.53;5109224;28;20035;-22
2021/07/02 09:56:09;;;;;;;9.40;6.38;;;;;;;30.32;42.85;99426.03;5109128;28;20059;-22
2021/07/02 09:58:36;;;;;;;10.00;7.00;;;;;;;30.46;40.24;99447.44;5109061;28;20558;-22
2021/07/02 10:01:02;;;;;;;8.77;6.47;;;;;;;30.09;42.11;99416.94;5108865;28;20444;-22
2021/07/02 10:03:28;;;;;;;10.30;6.47;;;;;;;30.89;42.87;99442.63;5109122;28;20092;-22
2021/07/02 10:05:58;;;;;;;9.63;6.13;;;;;;;30.97;38.73;99432.53;5108933;28;20031;-22
2021/07/02 10:08:25;;;;;;;9.23;6.20;;;;;;;30.97;42.86;99438.03;5109028;28;20036;-22
2021/07/02 10:10:51;;;;;;;10.40;6.45;;;;;;;30.93;39.71;99437.19;5108923;28;20391;-22
2021/07/02 10:13:18;;;;;;;14.00;6.55;;;;;;;31.56;39.07;99428.19;5109112;28;20126;-22
2021/07/02 10:15:44;;;;;;;11.13;6.68;;;;;;;31.54;41.78;99432.50;5091172;28;20036;-22
2021/07/02 10:18:14;;;;;;;10.80;6.47;;;;;;;31.29;39.27;99434.94;5108790;28;20039;-22
2021/07/02 10:20:41;;;;;;;9.10;5.90;;;;;;;30.79;40.35;99429.47;5108950;28;20093;-22
2021/07/02 10:23:06;;;;;;;11.05;6.55;;;;;;;30.99;41.78;99436.47;5109048;28;20035;-22
2021/07/02 10:25:32;;;;;;;10.65;7.20;;;;;;;30.90;43.05;99432.44;5108747;28;20043;-22
2021/07/02 10:27:58;;;;;;;11.63;6.65;;;;;;;30.96;40.51;99425.44;5108366;28;20059;-22
2021/07/02 10:30:23;;;;;;;12.70;7.43;;;;;;;31.07;40.91;99409.06;5108266;28;20078;-22
2021/07/02 10:32:50;;;;;;;10.88;6.20;;;;;;;31.57;41.60;99432.53;5108691;28;20032;-22
2021/07/02 10:35:16;;;;;;;11.95;7.20;;;;;;;31.72;36.54;99427.19;5090491;28;20034;-22
2021/07/02 10:37:42;;;;;;;11.68;6.00;;;;;;;32.32;35.99;99421.47;5090507;28;20031;-22
2021/07/02 10:40:38;;;;;;;9.27;6.03;;;;;;;32.43;35.25;99414.09;5090176;28;20023;-22
2021/07/02 10:43:11;;;;;;;9.57;6.07;;;;;;;32.68;38.58;99404.44;5108784;28;20090;-23
2021/07/02 10:45:38;;;;;;;14.05;6.43;;;;;;;32.43;35.94;99408.56;5108107;28;20067;-23
2021/07/02 10:48:03;;;;;;;10.27;6.10;;;;;;;31.55;37.36;99404.56;5090098;28;20031;-22
2021/07/02 10:50:39;;;;;;;10.25;5.97;;;;;;;31.83;39.31;99400.50;5108241;28;20019;-22
2021/07/02 10:53:23;;;;;;;9.43;6.15;;;;;;;31.88;37.59;99394.66;5108386;28;20028;-22
2021/07/02 10:55:49;;;;;;;10.15;6.00;;;;;;;32.56;37.04;99383.44;5107911;28;20024;-22
2021/07/02 10:58:14;;;;;;;11.15;6.13;;;;;;;32.51;36.57;99373.53;5108086;28;20394;-22
2021/07/02 11:01:18;;;;;;;11.40;6.28;;;;;;;32.57;36.18;99380.31;5089855;28;20043;-22
2021/07/02 11:03:43;;;;;;;12.38;6.00;;;;;;;32.56;36.65;99389.75;5108204;28;20273;-22
2021/07/02 11:06:40;;;;;;;10.13;6.57;;;;;;;32.07;41.68;99381.88;5089902;28;20503;-22
2021/07/02 11:09:06;;;;;;;11.18;6.03;;;;;;;32.36;38.77;99385.63;5108259;28;20483;-22
2021/07/02 11:12:08;;;;;;;10.80;6.40;;;;;;;32.57;38.83;99387.78;5108100;28;20076;-22
2021/07/02 11:14:34;;;;;;;11.00;6.45;;;;;;;32.78;38.65;99379.66;5108441;28;20028;-22
2021/07/02 11:17:21;;;;;;;11.60;6.70;;;;;;;33.58;36.40;99378.78;5107966;28;20069;-22
2021/07/02 11:19:48;;;;;;;11.05;5.88;;;;;;;32.82;39.66;99368.63;5108006;28;20372;-22
2021/07/02 11:22:27;;;;;;;10.37;5.63;;;;;;;32.90;38.64;99373.00;5108213;28;20057;-22
2021/07/02 11:25:05;;;;;;;8.73;5.68;;;;;;;32.96;34.42;99378.97;5090521;28;20106;-22